Time;durP1;ratioP1;P1;durP2;ratioP2;P2;SDS_P1;SDS_P2;PMS_P1;PMS_P2;Temp;Humidity;BMP_temperature;BMP_pressure;BME280_temperature;BME280_humidity;BME280_pressure;Samples;Min_cycle;Max_cycle;Signal;HPM_P1;HPM_P2
2023/06/10 00:00:47;;;;;;;8.40;6.77;;;25.10;72.60;;;;;;5112475;28;20279;-74
2023/06/10 00:03:12;;;;;;;7.83;6.30;;;24.90;72.60;;;;;;5112883;28;20532;-74
2023/06/10 00:05:39;;;;;;;7.50;6.57;;;24.80;73.60;;;;;;5113622;28;20181;-74
2023/06/10 00:08:10;;;;;;;7.90;6.73;;;24.80;73.50;;;;;;5113115;28;20148;-74
2023/06/10 00:10:38;;;;;;;10.27;6.40;;;24.80;74.30;;;;;;5112377;28;20186;-74
2023/06/10 00:13:04;;;;;;;8.73;6.80;;;24.80;74.20;;;;;;5113710;28;20615;-73
2023/06/10 00:15:31;;;;;;;10.40;6.67;;;24.80;73.90;;;;;;5113251;28;20169;-73
2023/06/10 00:17:57;;;;;;;9.93;6.93;;;24.80;74.30;;;;;;5112375;28;20538;-74
2023/06/10 00:20:23;;;;;;;8.47;6.67;;;24.80;74.40;;;;;;5113121;28;20177;-73
2023/06/10 00:22:49;;;;;;;7.67;6.13;;;24.70;75.20;;;;;;5112048;28;20165;-73
2023/06/10 00:25:15;;;;;;;6.67;5.97;;;24.50;76.10;;;;;;5113263;28;20218;-73
2023/06/10 00:27:42;;;;;;;6.73;6.03;;;24.40;76.50;;;;;;5113151;28;20169;-72
2023/06/10 00:30:08;;;;;;;8.80;6.40;;;24.40;76.40;;;;;;5112139;28;20258;-74
2023/06/10 00:32:35;;;;;;;11.30;6.77;;;24.50;75.80;;;;;;5113380;28;20175;-74
2023/06/10 00:35:03;;;;;;;7.57;6.77;;;24.60;75.00;;;;;;5113292;28;20167;-74
2023/06/10 00:37:29;;;;;;;10.23;7.07;;;24.60;74.80;;;;;;5112061;28;20169;-74
2023/06/10 00:39:55;;;;;;;7.97;7.10;;;24.60;74.80;;;;;;5113875;28;20161;-74
2023/06/10 00:42:24;;;;;;;9.10;6.83;;;24.40;75.10;;;;;;5113239;28;20626;-75
2023/06/10 00:44:50;;;;;;;8.23;6.50;;;24.40;75.30;;;;;;5112329;28;20177;-73
2023/06/10 00:47:17;;;;;;;9.47;7.33;;;24.40;75.00;;;;;;5112733;28;20670;-73
2023/06/10 00:49:45;;;;;;;8.17;7.07;;;24.40;75.50;;;;;;5112763;28;20181;-73
2023/06/10 00:52:14;;;;;;;13.83;6.87;;;24.30;76.40;;;;;;5112834;28;20158;-72
2023/06/10 00:54:40;;;;;;;9.53;7.07;;;24.20;77.10;;;;;;5113158;28;20150;-72
2023/06/10 00:57:06;;;;;;;10.30;6.80;;;24.20;77.40;;;;;;5112702;28;20176;-74
2023/06/10 00:59:34;;;;;;;7.63;6.93;;;24.10;78.00;;;;;;5111358;28;20221;-74
2023/06/10 01:02:00;;;;;;;8.77;7.10;;;24.10;78.60;;;;;;5113509;28;20199;-73
2023/06/10 01:04:26;;;;;;;8.00;7.20;;;24.00;78.90;;;;;;5113003;28;20269;-73
2023/06/10 01:07:01;;;;;;;7.70;6.87;;;23.90;79.00;;;;;;5112508;28;20268;-74
2023/06/10 01:09:49;;;;;;;9.40;6.70;;;23.90;79.40;;;;;;5111813;28;20265;-73
2023/06/10 01:12:48;;;;;;;9.10;7.03;;;23.80;80.10;;;;;;5112817;28;20196;-73
2023/06/10 01:15:15;;;;;;;7.83;7.00;;;23.80;80.70;;;;;;5105091;28;20635;-73
2023/06/10 01:18:04;;;;;;;11.33;6.73;;;23.60;81.40;;;;;;5115983;28;20173;-73
2023/06/10 01:20:32;;;;;;;8.00;6.67;;;23.50;82.20;;;;;;5116360;28;20161;-75
2023/06/10 01:23:02;;;;;;;7.47;6.77;;;23.50;83.30;;;;;;5115706;28;20216;-74
2023/06/10 01:25:32;;;;;;;9.77;7.13;;;23.30;83.40;;;;;;5115628;28;20222;-73
2023/06/10 01:27:58;;;;;;;8.93;7.43;;;23.30;84.50;;;;;;5116837;28;20520;-74
2023/06/10 01:30:30;;;;;;;8.60;7.10;;;23.20;85.20;;;;;;5116507;28;20229;-74
2023/06/10 01:32:59;;;;;;;8.63;7.00;;;23.10;85.80;;;;;;5116616;28;20166;-75
2023/06/10 01:35:28;;;;;;;8.43;7.63;;;23.10;86.70;;;;;;5116420;28;20157;-72
2023/06/10 01:37:56;;;;;;;8.23;7.40;;;23.10;87.00;;;;;;5116793;28;20149;-75
2023/06/10 01:40:24;;;;;;;9.43;7.20;;;23.10;87.30;;;;;;5114927;28;20168;-73
2023/06/10 01:42:52;;;;;;;10.33;7.17;;;23.10;88.10;;;;;;5116611;28;20146;-74
2023/06/10 01:45:18;;;;;;;10.83;7.20;;;23.10;88.10;;;;;;5115279;28;20184;-73
2023/06/10 01:47:43;;;;;;;7.97;7.17;;;23.00;88.80;;;;;;5116387;28;20178;-74
2023/06/10 01:50:09;;;;;;;9.23;6.97;;;22.90;89.90;;;;;;5115037;28;20162;-78
2023/06/10 01:52:35;;;;;;;10.27;7.27;;;22.90;90.40;;;;;;5116117;28;20142;-77
2023/06/10 01:55:00;;;;;;;8.03;7.23;;;22.80;90.60;;;;;;5116589;28;20528;-76
2023/06/10 01:57:27;;;;;;;8.37;7.27;;;22.80;90.80;;;;;;5115325;28;20181;-77
2023/06/10 01:59:52;;;;;;;8.67;7.30;;;22.80;91.30;;;;;;5114839;28;20170;-77
2023/06/10 02:02:18;;;;;;;8.30;7.30;;;22.70;91.20;;;;;;5116375;28;20219;-77
2023/06/10 02:04:45;;;;;;;12.03;7.80;;;22.70;91.50;;;;;;5114794;28;20273;-77
2023/06/10 02:07:12;;;;;;;8.47;7.67;;;22.60;92.10;;;;;;5116024;28;20199;-78
2023/06/10 02:09:37;;;;;;;8.30;7.50;;;22.60;92.50;;;;;;5118857;28;20189;-78
2023/06/10 02:12:04;;;;;;;8.63;7.00;;;22.50;92.90;;;;;;5117810;28;20920;-78
2023/06/10 02:14:33;;;;;;;10.47;7.10;;;22.50;93.20;;;;;;5118122;27;20574;-76
2023/06/10 02:16:59;;;;;;;8.63;7.73;;;22.50;93.40;;;;;;5118844;28;20576;-77
2023/06/10 02:19:26;;;;;;;8.17;7.33;;;22.40;93.90;;;;;;5116475;28;20200;-77
2023/06/10 02:21:52;;;;;;;8.57;7.63;;;22.40;94.20;;;;;;5119309;28;20474;-78
2023/06/10 02:24:19;;;;;;;8.73;7.83;;;22.40;94.70;;;;;;5116070;28;20179;-77
2023/06/10 02:26:45;;;;;;;8.80;7.63;;;22.40;94.60;;;;;;5114679;28;20186;-77
2023/06/10 02:29:10;;;;;;;8.20;7.40;;;22.30;94.80;;;;;;5116010;28;20158;-77
2023/06/10 02:31:37;;;;;;;8.30;7.47;;;22.30;94.90;;;;;;5116802;28;20166;-76
2023/06/10 02:34:03;;;;;;;11.30;7.80;;;22.20;95.40;;;;;;5115506;28;20227;-78
2023/06/10 02:36:30;;;;;;;8.27;7.50;;;22.10;96.10;;;;;;5116342;28;20154;-78
2023/06/10 02:38:56;;;;;;;10.53;7.63;;;22.10;96.40;;;;;;5116018;28;20565;-78
2023/06/10 02:41:21;;;;;;;9.00;7.93;;;22.00;96.80;;;;;;5116174;28;20189;-77
2023/06/10 02:43:47;;;;;;;8.67;7.33;;;21.90;97.30;;;;;;5116071;28;20547;-77
2023/06/10 02:46:16;;;;;;;10.60;7.83;;;21.90;97.50;;;;;;5115139;28;20205;-76
2023/06/10 02:48:43;;;;;;;8.47;7.30;;;21.80;97.90;;;;;;5113879;28;20657;-77
2023/06/10 02:51:09;;;;;;;8.97;7.90;;;21.80;98.30;;;;;;5116034;28;20166;-78
2023/06/10 02:53:35;;;;;;;9.60;7.93;;;21.80;98.60;;;;;;5114564;28;20189;-77
2023/06/10 02:56:02;;;;;;;9.00;8.00;;;21.80;99.00;;;;;;5114367;28;20199;-77
2023/06/10 02:58:28;;;;;;;8.80;7.80;;;21.80;99.30;;;;;;5115320;28;20273;-76
2023/06/10 03:00:54;;;;;;;9.23;8.20;;;21.90;99.40;;;;;;5115166;28;20174;-76
2023/06/10 03:03:22;;;;;;;10.00;8.50;;;21.90;99.20;;;;;;5115814;28;20173;-76
2023/06/10 03:05:48;;;;;;;8.73;7.77;;;21.80;99.50;;;;;;5114578;28;20549;-76
2023/06/10 03:08:13;;;;;;;10.07;8.70;;;21.80;99.80;;;;;;5114735;28;20169;-76
2023/06/10 03:10:41;;;;;;;11.80;8.33;;;21.80;99.90;;;;;;5114902;28;20232;-77
2023/06/10 03:13:06;;;;;;;9.00;8.20;;;21.80;99.90;;;;;;5114624;28;20213;-76
2023/06/10 03:15:33;;;;;;;9.63;8.10;;;21.70;99.90;;;;;;5115356;28;20155;-77
2023/06/10 03:18:00;;;;;;;9.53;8.20;;;21.60;99.90;;;;;;5113333;28;20166;-76
2023/06/10 03:20:27;;;;;;;10.50;8.00;;;21.70;99.90;;;;;;5115123;28;20563;-76
2023/06/10 03:22:53;;;;;;;11.37;8.00;;;21.50;99.90;;;;;;5115510;28;20525;-77
2023/06/10 03:25:20;;;;;;;9.63;8.63;;;21.50;99.90;;;;;;5114749;28;20154;-76
2023/06/10 03:27:46;;;;;;;9.67;8.67;;;21.60;99.90;;;;;;5113544;28;20178;-76
2023/06/10 03:30:13;;;;;;;12.13;8.73;;;21.60;99.90;;;;;;5114287;28;20223;-76
2023/06/10 03:32:40;;;;;;;11.83;8.37;;;21.50;99.90;;;;;;5114421;28;20182;-76
2023/06/10 03:35:07;;;;;;;9.10;8.20;;;21.40;99.90;;;;;;5114383;28;20198;-73
2023/06/10 03:37:33;;;;;;;12.27;8.60;;;21.40;99.90;;;;;;5113850;27;20174;-74
2023/06/10 03:39:59;;;;;;;9.17;7.73;;;21.40;99.90;;;;;;5114130;28;20177;-74
2023/06/10 03:42:24;;;;;;;9.47;8.07;;;21.40;99.90;;;;;;5112876;28;20693;-75
2023/06/10 03:44:50;;;;;;;10.80;8.87;;;21.30;99.90;;;;;;5113716;28;20178;-74
2023/06/10 03:47:15;;;;;;;13.13;8.77;;;21.40;99.90;;;;;;5114203;28;20185;-74
2023/06/10 03:49:41;;;;;;;10.30;8.97;;;21.40;99.90;;;;;;5113874;28;20182;-73
2023/06/10 03:52:07;;;;;;;13.07;8.73;;;21.50;99.90;;;;;;5113239;28;20230;-74
2023/06/10 03:54:34;;;;;;;9.13;8.23;;;21.50;99.90;;;;;;5113156;28;20178;-72
2023/06/10 03:57:00;;;;;;;10.73;8.67;;;21.50;99.90;;;;;;5113884;28;20185;-72
2023/06/10 03:59:26;;;;;;;10.13;8.70;;;21.50;99.90;;;;;;5113437;28;20217;-73
2023/06/10 04:01:51;;;;;;;9.13;8.13;;;21.50;99.90;;;;;;5114003;28;20768;-74
2023/06/10 04:04:17;;;;;;;11.07;8.33;;;21.60;99.90;;;;;;5113512;28;20174;-74
2023/06/10 04:06:44;;;;;;;9.40;8.40;;;21.70;99.90;;;;;;5113639;28;20193;-74
2023/06/10 04:09:10;;;;;;;9.47;8.40;;;21.60;99.90;;;;;;5112087;28;20170;-74
2023/06/10 04:11:36;;;;;;;10.10;8.47;;;21.60;99.90;;;;;;5112132;28;20529;-73
2023/06/10 04:14:02;;;;;;;11.77;8.67;;;21.70;99.90;;;;;;5113511;28;20157;-74
2023/06/10 04:16:28;;;;;;;10.33;8.97;;;21.60;99.90;;;;;;5112540;28;20154;-73
2023/06/10 04:18:54;;;;;;;13.57;9.33;;;21.70;99.90;;;;;;5113471;28;20174;-73
2023/06/10 04:21:20;;;;;;;10.20;8.90;;;21.70;99.90;;;;;;5113466;28;20529;-73
2023/06/10 04:23:45;;;;;;;9.17;8.17;;;21.70;99.90;;;;;;5113214;28;20169;-74
2023/06/10 04:26:12;;;;;;;12.13;9.30;;;21.70;99.90;;;;;;5113270;28;20192;-73
2023/06/10 04:28:38;;;;;;;11.03;9.00;;;21.80;99.90;;;;;;5113126;28;20165;-73
2023/06/10 04:31:04;;;;;;;10.17;8.70;;;21.70;99.90;;;;;;5111882;28;20179;-74
2023/06/10 04:33:33;;;;;;;12.27;8.97;;;21.80;99.90;;;;;;5113115;28;20174;-73
2023/06/10 04:36:00;;;;;;;11.40;9.30;;;21.80;99.90;;;;;;5113194;28;20643;-73
2023/06/10 04:38:27;;;;;;;11.67;9.23;;;21.80;99.90;;;;;;5111239;28;20165;-74
2023/06/10 04:40:52;;;;;;;10.87;9.10;;;21.80;99.90;;;;;;5113942;28;20173;-73
2023/06/10 04:43:18;;;;;;;11.80;8.90;;;22.00;99.90;;;;;;5113010;28;20521;-74
2023/06/10 04:45:44;;;;;;;12.80;9.27;;;22.00;99.90;;;;;;5111922;28;20225;-74
2023/06/10 04:48:10;;;;;;;10.00;8.83;;;21.90;99.90;;;;;;5112852;28;20189;-74
2023/06/10 04:50:37;;;;;;;14.93;9.77;;;21.90;99.90;;;;;;5112547;28;20188;-74
2023/06/10 04:53:03;;;;;;;14.07;10.10;;;21.90;99.90;;;;;;5112909;28;20480;-74
2023/06/10 04:55:30;;;;;;;11.53;9.67;;;22.00;99.90;;;;;;5112971;28;20256;-74
2023/06/10 04:57:57;;;;;;;10.90;9.27;;;22.00;99.90;;;;;;5112649;28;20170;-74
2023/06/10 05:00:23;;;;;;;11.17;9.97;;;22.10;99.90;;;;;;5111142;28;20619;-74
2023/06/10 05:02:49;;;;;;;10.80;8.90;;;22.00;99.90;;;;;;5111521;28;20170;-74
2023/06/10 05:05:16;;;;;;;10.07;9.07;;;22.10;99.90;;;;;;5113140;28;20240;-74
2023/06/10 05:07:42;;;;;;;11.37;9.20;;;22.20;99.90;;;;;;5112605;28;20213;-74
2023/06/10 05:10:08;;;;;;;10.50;9.47;;;22.20;99.90;;;;;;5112570;28;20150;-74
2023/06/10 05:12:34;;;;;;;11.17;10.00;;;22.30;99.90;;;;;;5111466;28;20166;-74
2023/06/10 05:15:01;;;;;;;10.63;9.07;;;22.40;99.90;;;;;;5113053;28;20533;-74
2023/06/10 05:17:28;;;;;;;12.00;10.13;;;22.40;99.90;;;;;;5113117;28;20223;-74
2023/06/10 05:19:53;;;;;;;11.63;8.97;;;22.30;99.90;;;;;;5113279;28;20165;-72
2023/06/10 05:22:19;;;;;;;10.40;9.07;;;22.40;99.90;;;;;;5113126;28;20163;-72
2023/06/10 05:24:45;;;;;;;13.20;9.30;;;22.50;99.90;;;;;;5112480;28;20173;-72
2023/06/10 05:27:11;;;;;;;10.77;9.00;;;22.50;99.90;;;;;;5112689;28;20240;-73
2023/06/10 05:29:37;;;;;;;13.47;9.60;;;22.50;99.90;;;;;;5112954;28;20161;-72
2023/06/10 05:32:03;;;;;;;10.57;9.17;;;22.50;99.90;;;;;;5113747;28;20174;-72
2023/06/10 05:34:30;;;;;;;11.47;9.10;;;22.60;99.90;;;;;;5111463;28;20546;-73
2023/06/10 05:36:56;;;;;;;11.20;9.07;;;22.70;99.90;;;;;;5111347;28;20188;-72
2023/06/10 05:39:21;;;;;;;10.30;9.17;;;22.70;99.90;;;;;;5110417;28;20186;-73
2023/06/10 05:41:47;;;;;;;10.57;9.47;;;22.60;99.90;;;;;;5112388;28;20177;-73
2023/06/10 05:44:13;;;;;;;13.53;9.53;;;22.70;99.90;;;;;;5111169;28;20211;-72
2023/06/10 05:46:39;;;;;;;12.67;9.90;;;22.60;99.90;;;;;;5112044;28;20284;-72
2023/06/10 05:49:06;;;;;;;11.50;9.07;;;22.80;99.90;;;;;;5112255;28;20220;-73
2023/06/10 05:51:33;;;;;;;11.93;9.17;;;22.80;99.90;;;;;;5112579;28;20170;-72
2023/06/10 05:53:58;;;;;;;9.87;8.87;;;22.80;99.90;;;;;;5110886;28;20178;-73
2023/06/10 05:56:25;;;;;;;10.77;9.17;;;22.80;99.90;;;;;;5112199;28;20165;-73
2023/06/10 05:58:51;;;;;;;9.47;8.47;;;22.80;99.90;;;;;;5112461;28;20207;-75
2023/06/10 06:01:17;;;;;;;9.97;8.17;;;22.90;99.90;;;;;;5112044;28;20605;-73
2023/06/10 06:03:43;;;;;;;9.83;8.83;;;23.00;99.90;;;;;;5115174;28;20177;-73
2023/06/10 06:06:09;;;;;;;9.63;8.73;;;23.10;99.90;;;;;;5116034;28;20557;-74
2023/06/10 06:08:34;;;;;;;11.20;9.00;;;23.20;99.90;;;;;;5114074;28;20162;-75
2023/06/10 06:11:00;;;;;;;12.17;8.97;;;23.30;99.80;;;;;;5114380;28;20165;-73
2023/06/10 06:13:25;;;;;;;10.70;9.00;;;23.30;99.30;;;;;;5114764;28;20154;-73
2023/06/10 06:15:51;;;;;;;10.43;8.70;;;23.30;99.20;;;;;;5115593;28;20169;-73
2023/06/10 06:18:18;;;;;;;12.63;8.80;;;23.40;99.00;;;;;;5115921;28;20189;-73
2023/06/10 06:20:43;;;;;;;10.47;9.10;;;23.70;99.00;;;;;;5115768;28;20520;-73
2023/06/10 06:23:10;;;;;;;9.90;8.90;;;23.70;98.80;;;;;;5114241;28;20169;-74
2023/06/10 06:25:38;;;;;;;9.30;8.20;;;23.70;98.40;;;;;;5113772;28;20230;-74
2023/06/10 06:28:08;;;;;;;8.83;7.83;;;23.70;99.10;;;;;;5115222;27;20162;-73
2023/06/10 06:30:35;;;;;;;10.27;8.43;;;23.80;99.10;;;;;;5115520;27;20166;-74
2023/06/10 06:33:00;;;;;;;10.33;8.50;;;24.00;98.70;;;;;;5115409;28;20146;-74
2023/06/10 06:35:26;;;;;;;11.10;7.43;;;24.00;98.70;;;;;;5114960;28;20166;-74
2023/06/10 06:37:52;;;;;;;11.10;8.90;;;23.90;98.70;;;;;;5115368;28;20173;-74
2023/06/10 06:40:17;;;;;;;11.63;9.00;;;24.00;98.20;;;;;;5115350;28;20241;-74
2023/06/10 06:42:44;;;;;;;9.40;8.30;;;24.00;97.80;;;;;;5115206;28;20176;-73
2023/06/10 06:45:10;;;;;;;11.47;8.10;;;24.20;97.80;;;;;;5114705;28;20180;-73
2023/06/10 06:47:36;;;;;;;10.77;8.83;;;24.30;97.50;;;;;;5113800;28;20677;-73
2023/06/10 06:50:02;;;;;;;9.10;8.07;;;24.40;97.60;;;;;;5115505;28;20173;-73
2023/06/10 06:52:28;;;;;;;11.40;7.63;;;24.50;96.90;;;;;;5115447;28;20163;-74
2023/06/10 06:54:53;;;;;;;9.43;7.90;;;24.40;96.60;;;;;;5113302;28;20188;-72
2023/06/10 06:57:19;;;;;;;8.87;7.97;;;24.60;96.60;;;;;;5095024;28;20594;-73
2023/06/10 06:59:45;;;;;;;9.27;8.10;;;24.70;95.90;;;;;;5113853;28;20158;-73
2023/06/10 07:02:10;;;;;;;11.67;7.83;;;24.80;95.20;;;;;;5113369;28;20238;-73
2023/06/10 07:04:37;;;;;;;11.50;8.27;;;24.90;94.90;;;;;;5113745;28;20170;-73
2023/06/10 07:07:04;;;;;;;10.83;8.07;;;25.00;94.30;;;;;;5113930;28;20182;-75
2023/06/10 07:09:30;;;;;;;8.07;7.10;;;25.20;94.20;;;;;;5114877;28;20241;-76
2023/06/10 07:12:01;;;;;;;8.47;7.10;;;25.30;94.20;;;;;;5114347;28;20564;-77
2023/06/10 07:14:27;;;;;;;9.87;7.53;;;25.40;93.40;;;;;;5115534;28;20169;-74
2023/06/10 07:16:55;;;;;;;9.40;7.33;;;25.40;93.60;;;;;;5115322;28;20603;-75
2023/06/10 07:19:27;;;;;;;8.10;7.27;;;25.40;93.20;;;;;;5115179;28;20177;-76
2023/06/10 07:21:53;;;;;;;8.53;7.03;;;25.50;93.00;;;;;;5115142;28;20511;-75
2023/06/10 07:24:20;;;;;;;8.40;7.37;;;25.70;93.00;;;;;;5114689;28;20260;-75
2023/06/10 07:26:48;;;;;;;8.87;7.13;;;25.80;92.70;;;;;;5115178;27;20223;-75
2023/06/10 07:29:14;;;;;;;8.90;7.00;;;25.80;92.20;;;;;;5115059;28;20258;-74
2023/06/10 07:31:41;;;;;;;7.63;6.90;;;25.90;92.00;;;;;;5114778;28;20165;-74
2023/06/10 07:34:07;;;;;;;8.17;7.13;;;26.00;91.70;;;;;;5114754;28;20215;-73
2023/06/10 07:36:34;;;;;;;9.13;7.30;;;26.10;91.60;;;;;;5114486;28;20584;-73
2023/06/10 07:39:00;;;;;;;7.70;6.80;;;26.20;91.50;;;;;;5114409;28;20626;-74
2023/06/10 07:41:27;;;;;;;9.40;7.40;;;26.10;91.20;;;;;;5112844;28;20166;-74
2023/06/10 07:43:57;;;;;;;7.33;6.40;;;26.20;91.10;;;;;;5114290;28;20169;-75
2023/06/10 07:46:24;;;;;;;8.77;7.00;;;26.30;90.70;;;;;;5114320;28;20649;-75
2023/06/10 07:48:49;;;;;;;9.80;7.13;;;26.40;90.60;;;;;;5113932;28;20173;-75
2023/06/10 07:51:16;;;;;;;8.13;6.87;;;26.60;90.00;;;;;;5112821;28;20169;-73
2023/06/10 07:53:42;;;;;;;8.97;6.77;;;26.40;90.00;;;;;;5113250;28;20166;-76
2023/06/10 07:56:08;;;;;;;8.93;6.67;;;26.40;89.90;;;;;;5114555;28;20214;-74
2023/06/10 07:58:33;;;;;;;8.40;6.70;;;26.40;90.20;;;;;;5113361;28;20626;-73
2023/06/10 08:00:59;;;;;;;7.70;6.90;;;26.50;90.10;;;;;;5113996;28;20267;-74
2023/06/10 08:03:25;;;;;;;8.23;6.70;;;26.50;89.70;;;;;;5114658;28;20201;-74
2023/06/10 08:05:51;;;;;;;9.27;6.77;;;26.50;90.00;;;;;;5115681;28;20250;-73
2023/06/10 08:08:17;;;;;;;10.97;6.33;;;26.70;88.80;;;;;;5114737;28;20161;-74
2023/06/10 08:10:43;;;;;;;8.33;6.33;;;27.00;88.70;;;;;;5114181;28;20193;-73
2023/06/10 08:13:09;;;;;;;8.03;7.27;;;27.00;88.90;;;;;;5114011;28;20162;-73
2023/06/10 08:15:37;;;;;;;8.87;6.63;;;27.00;87.70;;;;;;5114432;28;20211;-73
2023/06/10 08:18:03;;;;;;;8.37;6.33;;;27.00;87.10;;;;;;5114174;28;20540;-74
2023/06/10 08:20:29;;;;;;;8.63;6.57;;;26.90;87.80;;;;;;5113112;28;20150;-73
2023/06/10 08:22:57;;;;;;;7.67;6.87;;;27.10;88.50;;;;;;5114250;28;20179;-73
2023/06/10 08:25:23;;;;;;;7.33;6.63;;;27.20;87.80;;;;;;5113281;28;20157;-74
2023/06/10 08:27:50;;;;;;;7.07;6.30;;;27.40;87.40;;;;;;5113782;28;20198;-74
2023/06/10 08:30:23;;;;;;;12.23;7.50;;;27.60;85.90;;;;;;5114053;28;20642;-74
2023/06/10 08:32:51;;;;;;;6.77;6.13;;;27.70;85.00;;;;;;5114345;28;20191;-76
2023/06/10 08:35:18;;;;;;;8.33;6.60;;;27.60;85.70;;;;;;5114551;28;20142;-74
2023/06/10 08:37:44;;;;;;;8.00;6.70;;;27.70;84.60;;;;;;5114389;28;20214;-74
2023/06/10 08:40:10;;;;;;;9.60;6.93;;;27.80;85.20;;;;;;5112595;28;20181;-74
2023/06/10 08:42:57;;;;;;;7.57;6.33;;;27.90;85.30;;;;;;5113305;28;20162;-74
2023/06/10 08:45:24;;;;;;;7.57;6.83;;;27.90;85.60;;;;;;5113726;28;20162;-74
2023/06/10 08:47:53;;;;;;;9.17;7.33;;;28.00;84.50;;;;;;5111873;28;20201;-74
2023/06/10 08:50:19;;;;;;;9.67;6.60;;;27.90;84.30;;;;;;5113208;28;20172;-74
2023/06/10 08:52:50;;;;;;;7.30;6.57;;;27.80;85.70;;;;;;5112183;28;20166;-74
2023/06/10 08:55:32;;;;;;;6.97;5.87;;;28.10;83.80;;;;;;5112219;28;20193;-74
2023/06/10 08:58:00;;;;;;;6.23;5.63;;;28.20;81.90;;;;;;5112717;28;20521;-75
2023/06/10 09:00:28;;;;;;;6.87;6.23;;;28.20;83.00;;;;;;5113809;28;20237;-75
2023/06/10 09:02:57;;;;;;;6.60;6.00;;;28.30;82.00;;;;;;5112652;28;20671;-75
2023/06/10 09:05:23;;;;;;;6.53;5.93;;;28.40;81.30;;;;;;5112294;28;20203;-75
2023/06/10 09:07:52;;;;;;;8.23;5.80;;;28.50;80.50;;;;;;5113569;28;20314;-75
2023/06/10 09:10:18;;;;;;;10.27;6.23;;;28.50;81.90;;;;;;5114360;28;20181;-76
2023/06/10 09:12:45;;;;;;;8.07;5.83;;;28.40;81.50;;;;;;5113634;28;20159;-75
2023/06/10 09:15:14;;;;;;;6.20;5.60;;;28.40;80.40;;;;;;5114987;28;20172;-74
2023/06/10 09:17:41;;;;;;;7.53;5.73;;;28.60;79.70;;;;;;5113486;28;20191;-74
2023/06/10 09:20:09;;;;;;;7.43;5.33;;;28.70;78.40;;;;;;5112241;28;20248;-75
2023/06/10 09:22:38;;;;;;;7.50;6.63;;;28.90;78.40;;;;;;5114918;28;20176;-75
2023/06/10 09:25:10;;;;;;;6.57;5.37;;;28.90;78.50;;;;;;5112179;28;20165;-75
2023/06/10 09:27:56;;;;;;;6.57;5.80;;;29.00;79.30;;;;;;5112469;28;20674;-75
2023/06/10 09:30:30;;;;;;;8.03;5.73;;;29.10;79.00;;;;;;5113864;28;20663;-73
2023/06/10 09:32:58;;;;;;;6.83;6.13;;;29.20;78.20;;;;;;5112882;28;20166;-74
2023/06/10 09:35:28;;;;;;;6.43;5.73;;;29.30;78.00;;;;;;5114310;28;20157;-74
2023/06/10 09:37:57;;;;;;;7.23;5.73;;;29.60;76.10;;;;;;5116261;28;20154;-73
2023/06/10 09:40:24;;;;;;;6.00;5.50;;;29.40;76.90;;;;;;5116868;28;20169;-73
2023/06/10 09:42:56;;;;;;;6.03;5.50;;;29.30;76.20;;;;;;5115129;28;20223;-73
2023/06/10 09:45:38;;;;;;;5.93;5.43;;;29.30;75.70;;;;;;5116665;28;20193;-73
2023/06/10 09:48:04;;;;;;;5.90;5.40;;;29.30;74.70;;;;;;5115544;28;20467;-72
2023/06/10 09:50:34;;;;;;;7.67;5.00;;;29.40;76.10;;;;;;5116456;28;20223;-72
2023/06/10 09:53:03;;;;;;;6.60;6.00;;;29.60;74.80;;;;;;5116464;28;20158;-74
2023/06/10 09:55:33;;;;;;;7.27;5.50;;;29.70;74.30;;;;;;5116598;28;20235;-74
2023/06/10 09:57:59;;;;;;;6.07;5.47;;;29.70;74.00;;;;;;5116196;28;20174;-72
2023/06/10 10:00:25;;;;;;;9.80;5.70;;;29.90;72.40;;;;;;5116284;28;20174;-74
2023/06/10 10:02:53;;;;;;;5.70;5.20;;;30.00;71.60;;;;;;5116183;28;20170;-74
2023/06/10 10:05:22;;;;;;;5.80;5.22;;;30.20;70.60;;;;;;5115205;28;20234;-75
2023/06/10 10:07:48;;;;;;;9.15;8.02;;;30.30;71.30;;;;;;5116233;28;20254;-75
2023/06/10 10:10:19;;;;;;;8.23;5.73;;;30.30;72.00;;;;;;5116107;28;20577;-73
2023/06/10 10:12:47;;;;;;;11.17;6.20;;;30.50;69.80;;;;;;5115879;27;20162;-75
2023/06/10 10:15:16;;;;;;;10.00;5.90;;;30.40;70.10;;;;;;5116292;28;20158;-74
2023/06/10 10:18:08;;;;;;;13.65;5.97;;;30.30;69.80;;;;;;5115364;28;20290;-74
2023/06/10 10:20:46;;;;;;;6.38;5.85;;;30.50;70.20;;;;;;5116561;28;20150;-75
2023/06/10 10:23:15;;;;;;;7.55;5.80;;;30.60;68.90;;;;;;5116245;28;20614;-73
2023/06/10 10:25:42;;;;;;;6.60;5.20;;;30.80;67.60;;;;;;5116290;28;20169;-74
2023/06/10 10:28:10;;;;;;;6.20;5.63;;;30.80;66.00;;;;;;5114274;28;20545;-73
2023/06/10 10:31:10;;;;;;;6.03;5.40;;;30.80;67.10;;;;;;5115322;28;20170;-74
2023/06/10 10:33:48;;;;;;;5.83;5.13;;;30.80;66.40;;;;;;5096520;28;20178;-74
2023/06/10 10:36:15;;;;;;;5.40;4.90;;;30.80;64.70;;;;;;5114555;28;20166;-76
2023/06/10 10:38:42;;;;;;;6.03;5.50;;;30.90;64.80;;;;;;5115798;28;20171;-74
2023/06/10 10:41:09;;;;;;;7.82;5.63;;;30.90;64.40;;;;;;5114350;28;20170;-75
2023/06/10 10:43:37;;;;;;;5.68;5.15;;;31.10;66.00;;;;;;5115477;28;20515;-73
2023/06/10 10:46:11;;;;;;;9.18;5.80;;;31.30;65.40;;;;;;5115513;28;20174;-73
2023/06/10 10:48:39;;;;;;;7.10;5.43;;;31.40;64.10;;;;;;5114413;28;20173;-74
2023/06/10 10:51:05;;;;;;;6.95;5.07;;;31.60;63.00;;;;;;5114084;28;20166;-72
2023/06/10 10:53:32;;;;;;;5.57;5.07;;;31.60;61.90;;;;;;5115375;28;20581;-73
2023/06/10 10:56:15;;;;;;;6.47;5.07;;;31.70;61.90;;;;;;5115226;28;20593;-73
2023/06/10 10:58:41;;;;;;;6.03;4.85;;;31.80;60.50;;;;;;5115202;28;20162;-73
2023/06/10 11:01:14;;;;;;;5.90;5.25;;;31.90;61.00;;;;;;5115007;28;20172;-72
2023/06/10 11:03:47;;;;;;;5.88;5.35;;;32.00;60.10;;;;;;5113882;28;20169;-73
2023/06/10 11:06:18;;;;;;;7.57;4.93;;;32.00;59.10;;;;;;5115162;28;20182;-74
2023/06/10 11:08:47;;;;;;;6.53;4.70;;;32.10;58.40;;;;;;5115128;27;20656;-73
2023/06/10 11:11:21;;;;;;;5.57;4.55;;;32.10;59.00;;;;;;5113606;28;20166;-74
2023/06/10 11:14:01;;;;;;;7.43;5.05;;;32.30;58.00;;;;;;5114885;28;20237;-74
2023/06/10 11:16:29;;;;;;;5.05;4.57;;;32.60;55.40;;;;;;5114903;28;20154;-74
2023/06/10 11:18:56;;;;;;;9.15;5.78;;;33.00;56.30;;;;;;5114842;28;20240;-73
2023/06/10 11:21:26;;;;;;;5.90;5.00;;;33.50;57.10;;;;;;5114544;28;20223;-73
2023/06/10 11:23:52;;;;;;;6.25;5.40;;;34.10;56.10;;;;;;5113474;28;20260;-73
2023/06/10 11:26:26;;;;;;;6.05;5.13;;;34.30;56.00;;;;;;5114580;28;20201;-73
2023/06/10 11:28:55;;;;;;;10.10;5.32;;;34.60;55.00;;;;;;5114540;28;20206;-73
2023/06/10 11:31:21;;;;;;;5.32;4.80;;;34.80;54.30;;;;;;5113349;28;20280;-73
2023/06/10 11:33:51;;;;;;;6.78;4.97;;;34.90;53.10;;;;;;5114251;28;20158;-73
2023/06/10 11:36:17;;;;;;;6.28;5.30;;;35.20;53.10;;;;;;5112872;28;20166;-72
2023/06/10 11:38:44;;;;;;;5.63;5.13;;;35.50;53.40;;;;;;5114288;28;20177;-72
2023/06/10 11:41:14;;;;;;;5.30;4.80;;;35.70;52.40;;;;;;5114281;28;20154;-73
2023/06/10 11:43:47;;;;;;;5.70;5.05;;;35.90;51.90;;;;;;5113789;28;20204;-73
2023/06/10 11:46:15;;;;;;;6.45;5.47;;;36.10;50.70;;;;;;5114156;28;20258;-74
2023/06/10 11:48:52;;;;;;;9.18;5.47;;;36.20;50.60;;;;;;5114100;28;20666;-74
2023/06/10 11:51:19;;;;;;;6.05;5.45;;;36.20;50.50;;;;;;5114372;27;20207;-74
2023/06/10 11:53:49;;;;;;;5.53;4.85;;;36.30;49.70;;;;;;5113230;28;20161;-73
2023/06/10 11:56:25;;;;;;;7.72;5.90;;;36.50;49.00;;;;;;5112924;28;20186;-73
2023/06/10 11:58:57;;;;;;;6.30;5.70;;;36.50;49.60;;;;;;5113955;28;20599;-74
2023/06/10 12:01:25;;;;;;;8.38;5.78;;;36.40;50.20;;;;;;5113388;28;20166;-74
2023/06/10 12:04:18;;;;;;;7.07;6.05;;;36.40;49.60;;;;;;5113308;28;20645;-74
2023/06/10 12:06:51;;;;;;;5.72;5.22;;;36.80;49.80;;;;;;5108046;28;20201;-74
2023/06/10 12:09:22;;;;;;;8.30;5.93;;;36.80;49.00;;;;;;5111970;28;20221;-73
2023/06/10 12:12:02;;;;;;;6.95;4.88;;;37.20;49.00;;;;;;5113330;28;20481;-74
2023/06/10 12:14:57;;;;;;;8.50;6.10;;;37.30;48.20;;;;;;5111714;28;20322;-74
2023/06/10 12:17:34;;;;;;;5.97;5.38;;;37.00;48.90;;;;;;5112734;28;20245;-74
2023/06/10 12:20:01;;;;;;;5.68;5.18;;;37.00;47.90;;;;;;5113242;28;20172;-73
2023/06/10 12:22:27;;;;;;;6.32;5.63;;;36.70;48.90;;;;;;5111968;28;20169;-73
2023/06/10 12:25:01;;;;;;;7.00;5.38;;;37.10;48.30;;;;;;5113549;27;20154;-72
2023/06/10 12:27:29;;;;;;;6.13;5.43;;;37.60;48.10;;;;;;5113122;28;20590;-73
2023/06/10 12:30:00;;;;;;;6.20;5.32;;;38.50;46.90;;;;;;5111901;28;20752;-73
2023/06/10 12:32:45;;;;;;;6.90;5.97;;;38.50;46.80;;;;;;5113047;28;20551;-75
2023/06/10 12:35:13;;;;;;;6.80;5.50;;;38.10;46.10;;;;;;5113071;28;20166;-75
2023/06/10 12:37:39;;;;;;;6.18;4.90;;;37.40;46.50;;;;;;5112939;28;20252;-75
2023/06/10 12:40:08;;;;;;;5.38;4.88;;;37.70;46.00;;;;;;5111754;28;20641;-73
2023/06/10 12:42:38;;;;;;;7.00;4.97;;;38.50;45.90;;;;;;5111608;28;20227;-76
2023/06/10 12:45:08;;;;;;;6.15;4.95;;;38.90;45.30;;;;;;5113551;28;20614;-73
2023/06/10 12:47:37;;;;;;;5.82;5.25;;;39.10;44.80;;;;;;5112927;28;20265;-72